Time;durP1;ratioP1;P1;durP2;ratioP2;P2;SDS_P1;SDS_P2;PMS_P1;PMS_P2;Temp;Humidity;BMP_temperature;BMP_pressure;BME280_temperature;BME280_humidity;BME280_pressure;Samples;Min_cycle;Max_cycle;Signal;HPM_P1;HPM_P2
2021/03/28 00:00:13;;;;;;;6.35;3.47;;;;;;;;;;5011241;28;20223;-52
2021/03/28 00:02:53;;;;;;;8.00;3.95;;;;;;;;;;5011372;28;20196;-52
2021/03/28 00:05:22;;;;;;;10.32;3.35;;;;;;;;;;5011168;28;20169;-52
2021/03/28 00:07:49;;;;;;;11.48;3.80;;;;;;;;;;5010976;28;20173;-52
2021/03/28 00:10:31;;;;;;;7.75;3.20;;;;;;;;;;5010336;28;20167;-53
2021/03/28 00:13:03;;;;;;;6.55;3.70;;;;;;;;;;5011233;28;20199;-53
2021/03/28 00:15:31;;;;;;;10.77;3.85;;;;;;;;;;5010263;28;20185;-53
2021/03/28 00:18:15;;;;;;;16.45;4.25;;;;;;;;;;5010902;28;20191;-52
2021/03/28 00:20:42;;;;;;;9.30;4.85;;;;;;;;;;5011167;28;20173;-53
2021/03/28 00:23:14;;;;;;;9.35;4.15;;;;;;;;;;5011099;28;20179;-52
2021/03/28 00:25:52;;;;;;;12.90;4.32;;;;;;;;;;5011178;28;20249;-53
2021/03/28 00:28:23;;;;;;;8.25;4.18;;;;;;;;;;5010796;28;20168;-52
2021/03/28 00:30:50;;;;;;;5.40;4.05;;;;;;;;;;5010694;28;20181;-52
2021/03/28 00:33:21;;;;;;;8.85;3.67;;;;;;;;;;5011012;28;20680;-53
2021/03/28 00:35:47;;;;;;;9.57;4.57;;;;;;;;;;5011117;28;20168;-52
2021/03/28 00:38:16;;;;;;;11.70;4.70;;;;;;;;;;5010620;28;20168;-52
2021/03/28 00:40:42;;;;;;;7.15;4.45;;;;;;;;;;5010498;28;20876;-52
2021/03/28 00:43:16;;;;;;;11.75;4.88;;;;;;;;;;5010768;28;20286;-52
2021/03/28 00:45:42;;;;;;;9.63;3.65;;;;;;;;;;5011246;28;20544;-52
2021/03/28 00:48:10;;;;;;;9.10;4.63;;;;;;;;;;5011198;28;20176;-53
2021/03/28 00:50:41;;;;;;;9.60;4.43;;;;;;;;;;5010775;28;20806;-50
2021/03/28 00:53:09;;;;;;;7.30;3.63;;;;;;;;;;5010744;28;20188;-50
2021/03/28 00:55:40;;;;;;;12.80;4.68;;;;;;;;;;5010640;28;20172;-51
2021/03/28 00:58:20;;;;;;;8.38;4.47;;;;;;;;;;5015006;28;20229;-52
2021/03/28 01:01:05;;;;;;;11.80;4.13;;;;;;;;;;5016980;28;20316;-51
2021/03/28 01:03:36;;;;;;;7.85;4.05;;;;;;;;;;5017696;28;20240;-51
2021/03/28 01:06:09;;;;;;;6.80;4.05;;;;;;;;;;5015957;28;20169;-51
2021/03/28 01:08:58;;;;;;;10.98;4.30;;;;;;;;;;5016775;28;20173;-52
2021/03/28 01:11:42;;;;;;;11.00;4.15;;;;;;;;;;5015962;28;20199;-50
2021/03/28 01:14:19;;;;;;;17.25;4.45;;;;;;;;;;4997061;28;20235;-51
2021/03/28 01:17:02;;;;;;;8.35;3.85;;;;;;;;;;4997746;28;20177;-51
2021/03/28 01:19:47;;;;;;;12.27;3.90;;;;;;;;;;4996330;28;20213;-52
2021/03/28 01:22:19;;;;;;;9.32;4.18;;;;;;;;;;4997339;28;20560;-52
2021/03/28 01:24:45;;;;;;;11.60;4.00;;;;;;;;;;4997223;28;20165;-52
2021/03/28 01:27:21;;;;;;;8.60;4.33;;;;;;;;;;4996541;28;20649;-52
2021/03/28 01:30:05;;;;;;;8.15;3.80;;;;;;;;;;4997510;28;20402;-52
2021/03/28 01:32:45;;;;;;;12.05;4.07;;;;;;;;;;4997552;28;20224;-51
2021/03/28 01:35:12;;;;;;;15.68;4.05;;;;;;;;;;4997297;28;20181;-51
2021/03/28 01:37:57;;;;;;;10.63;3.70;;;;;;;;;;4996590;28;20174;-51
2021/03/28 01:40:26;;;;;;;11.57;3.77;;;;;;;;;;4996486;28;20552;-53
2021/03/28 01:43:03;;;;;;;10.45;4.13;;;;;;;;;;5007257;28;20462;-50
2021/03/28 01:45:35;;;;;;;8.43;4.35;;;;;;;;;;5019565;28;20172;-52
2021/03/28 01:48:19;;;;;;;11.43;3.70;;;;;;;;;;5019121;28;20176;-52
2021/03/28 01:50:51;;;;;;;9.35;4.07;;;;;;;;;;5019159;28;20220;-53
2021/03/28 01:53:29;;;;;;;11.73;3.78;;;;;;;;;;5019057;28;20175;-53
2021/03/28 01:56:01;;;;;;;10.30;3.30;;;;;;;;;;5018042;28;20736;-52
2021/03/28 01:58:37;;;;;;;8.95;4.28;;;;;;;;;;5018791;28;20776;-52
2021/03/28 02:01:06;;;;;;;7.57;3.53;;;;;;;;;;5019091;28;20576;-53
2021/03/28 02:03:51;;;;;;;10.50;3.65;;;;;;;;;;5018655;28;20169;-51
2021/03/28 02:06:29;;;;;;;13.75;3.50;;;;;;;;;;5019335;28;20302;-52
2021/03/28 02:09:07;;;;;;;14.63;3.67;;;;;;;;;;5019048;28;20179;-52
2021/03/28 02:11:33;;;;;;;8.60;4.15;;;;;;;;;;5018670;28;20189;-52
2021/03/28 02:13:59;;;;;;;19.37;4.10;;;;;;;;;;5018236;28;20280;-52
2021/03/28 02:16:32;;;;;;;7.50;3.30;;;;;;;;;;5019465;28;20410;-52
2021/03/28 02:18:58;;;;;;;8.25;3.72;;;;;;;;;;5018190;28;20514;-54
2021/03/28 02:21:42;;;;;;;7.83;3.63;;;;;;;;;;5018866;28;20216;-52
2021/03/28 02:24:24;;;;;;;9.30;3.47;;;;;;;;;;5019544;28;20399;-52
2021/03/28 02:27:00;;;;;;;8.45;3.20;;;;;;;;;;5019444;28;20540;-52
2021/03/28 02:29:31;;;;;;;6.53;3.30;;;;;;;;;;5018456;28;20236;-52
2021/03/28 02:32:02;;;;;;;10.52;3.70;;;;;;;;;;5018779;28;20195;-53
2021/03/28 02:34:37;;;;;;;6.93;3.50;;;;;;;;;;5019118;28;20173;-52
2021/03/28 02:37:18;;;;;;;8.00;3.72;;;;;;;;;;5018578;28;20807;-53
2021/03/28 02:39:50;;;;;;;13.55;4.20;;;;;;;;;;5018523;28;20667;-52
2021/03/28 02:42:23;;;;;;;15.20;3.93;;;;;;;;;;5017017;28;20240;-52
2021/03/28 02:45:04;;;;;;;7.93;3.92;;;;;;;;;;5018196;28;20404;-52
2021/03/28 02:47:49;;;;;;;13.55;3.70;;;;;;;;;;5018554;28;20665;-51
2021/03/28 02:50:24;;;;;;;19.75;3.72;;;;;;;;;;5018624;28;20247;-52
2021/03/28 02:53:12;;;;;;;10.75;3.35;;;;;;;;;;5017553;28;20246;-52
2021/03/28 02:55:43;;;;;;;9.23;3.72;;;;;;;;;;5019162;28;20204;-52
2021/03/28 02:58:09;;;;;;;7.97;3.67;;;;;;;;;;5018086;28;20174;-52
2021/03/28 03:00:54;;;;;;;6.43;3.07;;;;;;;;;;5018234;28;20546;-52
2021/03/28 03:03:35;;;;;;;11.05;3.67;;;;;;;;;;5017998;28;20406;-52
2021/03/28 03:06:10;;;;;;;6.28;2.90;;;;;;;;;;5018045;28;20513;-52
2021/03/28 03:08:56;;;;;;;16.15;4.43;;;;;;;;;;5017802;28;20268;-52
2021/03/28 03:11:25;;;;;;;12.20;3.00;;;;;;;;;;5017601;28;20200;-51
2021/03/28 03:14:10;;;;;;;6.20;3.30;;;;;;;;;;5016602;28;20197;-52
2021/03/28 03:17:08;;;;;;;11.65;4.70;;;;;;;;;;5017197;28;20899;-52
2021/03/28 03:19:52;;;;;;;9.80;3.03;;;;;;;;;;5016937;28;20289;-52
2021/03/28 03:22:21;;;;;;;6.33;3.03;;;;;;;;;;5018656;28;20332;-52
2021/03/28 03:24:53;;;;;;;6.25;2.95;;;;;;;;;;5018120;28;20475;-53
2021/03/28 03:27:55;;;;;;;6.27;2.80;;;;;;;;;;5018060;28;20221;-51
2021/03/28 03:30:26;;;;;;;13.38;3.70;;;;;;;;;;4956864;29;20415;-52
2021/03/28 03:33:01;;;;;;;9.27;3.22;;;;;;;;;;5007316;28;20208;-52
2021/03/28 03:35:46;;;;;;;9.03;3.93;;;;;;;;;;5017256;28;20259;-52
2021/03/28 03:38:15;;;;;;;5.93;2.90;;;;;;;;;;5016985;28;20490;-52
2021/03/28 03:40:41;;;;;;;6.38;3.03;;;;;;;;;;5016801;28;20238;-52
2021/03/28 03:43:26;;;;;;;8.40;2.90;;;;;;;;;;5015792;28;20203;-51
2021/03/28 03:45:59;;;;;;;8.85;2.72;;;;;;;;;;5017230;28;20411;-53
2021/03/28 03:48:40;;;;;;;5.32;2.85;;;;;;;;;;5017223;28;20251;-52
2021/03/28 03:51:38;;;;;;;8.38;2.88;;;;;;;;;;5017253;28;20200;-53
2021/03/28 03:54:09;;;;;;;7.53;3.37;;;;;;;;;;4983608;28;20248;-52
2021/03/28 03:56:42;;;;;;;14.90;3.80;;;;;;;;;;5016705;28;20447;-52
2021/03/28 03:59:19;;;;;;;5.30;2.43;;;;;;;;;;5015324;28;20823;-53
2021/03/28 04:01:57;;;;;;;9.37;3.27;;;;;;;;;;5016130;28;20428;-52
2021/03/28 04:04:23;;;;;;;10.40;2.43;;;;;;;;;;5016456;28;20413;-52
2021/03/28 04:07:08;;;;;;;10.17;3.83;;;;;;;;;;5016085;28;20431;-52
2021/03/28 04:09:36;;;;;;;10.17;2.63;;;;;;;;;;5016207;28;20959;-53
2021/03/28 04:12:05;;;;;;;9.00;2.47;;;;;;;;;;5013842;28;20450;-53
2021/03/28 04:14:38;;;;;;;5.13;2.70;;;;;;;;;;5016152;28;20402;-52
2021/03/28 04:17:22;;;;;;;4.53;2.42;;;;;;;;;;5016142;28;20187;-51
2021/03/28 04:19:54;;;;;;;4.75;2.75;;;;;;;;;;5016063;28;20208;-52
2021/03/28 04:22:31;;;;;;;10.18;2.45;;;;;;;;;;5016306;28;20192;-52
2021/03/28 04:25:02;;;;;;;7.77;2.83;;;;;;;;;;5016353;28;20165;-52
2021/03/28 04:27:43;;;;;;;6.63;2.70;;;;;;;;;;5015753;28;20819;-52
2021/03/28 04:30:42;;;;;;;5.17;3.13;;;;;;;;;;5016042;28;20408;-53
2021/03/28 04:33:23;;;;;;;9.07;2.35;;;;;;;;;;4982875;28;20432;-54
2021/03/28 04:36:11;;;;;;;11.03;3.33;;;;;;;;;;5015565;28;20194;-53
2021/03/28 04:38:44;;;;;;;10.30;2.60;;;;;;;;;;5015169;28;20407;-52
2021/03/28 04:41:28;;;;;;;8.53;2.73;;;;;;;;;;5015504;28;20736;-52
2021/03/28 04:44:09;;;;;;;5.80;2.20;;;;;;;;;;5016891;28;20401;-51
2021/03/28 04:46:48;;;;;;;6.17;2.60;;;;;;;;;;5015214;28;20224;-53
2021/03/28 04:49:32;;;;;;;6.50;3.10;;;;;;;;;;5014345;28;20399;-54
2021/03/28 04:52:17;;;;;;;7.63;2.80;;;;;;;;;;5015848;28;20453;-52
2021/03/28 04:55:01;;;;;;;7.93;2.92;;;;;;;;;;5016888;28;20183;-53
2021/03/28 04:57:46;;;;;;;14.27;3.20;;;;;;;;;;5016359;28;20176;-53
2021/03/28 05:00:30;;;;;;;9.27;2.75;;;;;;;;;;5016593;28;20539;-52
2021/03/28 05:03:15;;;;;;;8.80;2.80;;;;;;;;;;5016723;28;20238;-52
2021/03/28 05:05:54;;;;;;;12.95;3.00;;;;;;;;;;5016417;28;20195;-51
2021/03/28 05:08:39;;;;;;;14.23;3.10;;;;;;;;;;5016122;28;20230;-53
2021/03/28 05:11:23;;;;;;;11.02;3.10;;;;;;;;;;5016986;28;20195;-52
2021/03/28 05:14:02;;;;;;;13.05;3.47;;;;;;;;;;5015657;28;20273;-52
2021/03/28 05:16:40;;;;;;;7.65;2.50;;;;;;;;;;5017110;28;20184;-51
2021/03/28 05:19:24;;;;;;;4.63;2.22;;;;;;;;;;5019181;28;20193;-52
2021/03/28 05:22:02;;;;;;;5.40;2.63;;;;;;;;;;5019090;28;20560;-51
2021/03/28 05:24:51;;;;;;;4.80;2.38;;;;;;;;;;5019961;28;20177;-52
2021/03/28 05:27:20;;;;;;;8.60;2.30;;;;;;;;;;5019261;28;20165;-49
2021/03/28 05:30:04;;;;;;;19.38;2.83;;;;;;;;;;5018437;28;20179;-53
2021/03/28 05:32:37;;;;;;;17.42;3.00;;;;;;;;;;5018808;28;20280;-52
2021/03/28 05:35:29;;;;;;;5.15;2.67;;;;;;;;;;5018921;28;20180;-51
2021/03/28 05:38:16;;;;;;;15.23;3.40;;;;;;;;;;5019213;28;20180;-52
2021/03/28 05:40:51;;;;;;;15.35;2.80;;;;;;;;;;5018100;28;20201;-54
2021/03/28 05:43:29;;;;;;;8.98;2.83;;;;;;;;;;4998606;28;20178;-53
2021/03/28 05:46:13;;;;;;;9.15;3.30;;;;;;;;;;4997449;28;20189;-52
2021/03/28 05:48:46;;;;;;;4.60;2.58;;;;;;;;;;4998538;28;20173;-52
2021/03/28 05:51:30;;;;;;;5.25;2.45;;;;;;;;;;5000048;28;20215;-52
2021/03/28 05:54:05;;;;;;;5.80;2.50;;;;;;;;;;5000183;28;20172;-52
2021/03/28 05:56:31;;;;;;;5.30;2.57;;;;;;;;;;4999731;28;20175;-53
2021/03/28 05:59:03;;;;;;;6.53;2.77;;;;;;;;;;4998541;28;20452;-52
2021/03/28 06:01:48;;;;;;;14.35;3.17;;;;;;;;;;4999690;28;20428;-52
2021/03/28 06:04:23;;;;;;;4.50;2.20;;;;;;;;;;4999257;28;20252;-52
2021/03/28 06:07:08;;;;;;;6.25;2.78;;;;;;;;;;4999206;28;20260;-53
2021/03/28 06:10:06;;;;;;;6.33;2.60;;;;;;;;;;4999110;28;20686;-51
2021/03/28 06:12:54;;;;;;;5.70;2.20;;;;;;;;;;4978121;28;20482;-52
2021/03/28 06:15:39;;;;;;;7.80;2.60;;;;;;;;;;5018968;28;20436;-51
2021/03/28 06:18:25;;;;;;;6.80;2.40;;;;;;;;;;5018702;28;20183;-52
2021/03/28 06:21:06;;;;;;;1.93;1.83;;;;;;;;;;5018723;28;20411;-52
2021/03/28 06:23:51;;;;;;;7.63;1.90;;;;;;;;;;5018336;28;20396;-52
2021/03/28 06:26:36;;;;;;;4.30;2.30;;;;;;;;;;5017717;28;20823;-51
2021/03/28 06:29:11;;;;;;;5.87;2.30;;;;;;;;;;5018200;28;20806;-52
2021/03/28 06:31:52;;;;;;;3.63;2.20;;;;;;;;;;5018967;28;20425;-50
2021/03/28 06:34:27;;;;;;;5.07;2.20;;;;;;;;;;5019193;28;20881;-53
2021/03/28 06:37:12;;;;;;;5.13;2.80;;;;;;;;;;5020115;28;20828;-52
2021/03/28 06:39:47;;;;;;;5.37;2.50;;;;;;;;;;5019817;28;20458;-52
2021/03/28 06:42:26;;;;;;;6.27;2.10;;;;;;;;;;5020077;28;20571;-52
2021/03/28 06:44:55;;;;;;;5.00;2.43;;;;;;;;;;5019671;28;20436;-51
2021/03/28 06:47:21;;;;;;;4.80;2.33;;;;;;;;;;5019640;28;20937;-52
2021/03/28 06:49:59;;;;;;;8.17;3.17;;;;;;;;;;5014104;28;20414;-52
2021/03/28 06:52:32;;;;;;;6.43;2.90;;;;;;;;;;5012496;28;20481;-52
2021/03/28 06:55:07;;;;;;;8.90;2.77;;;;;;;;;;5012662;28;20921;-53
2021/03/28 06:57:45;;;;;;;5.27;2.70;;;;;;;;;;5012343;28;20409;-53
2021/03/28 07:00:11;;;;;;;6.63;2.93;;;;;;;;;;5012299;28;20454;-53
2021/03/28 07:03:15;;;;;;;6.47;2.17;;;;;;;;;;5012375;28;20434;-53
2021/03/28 07:05:59;;;;;;;5.13;2.87;;;;;;;;;;4951639;29;21112;-53
2021/03/28 07:08:31;;;;;;;4.43;2.20;;;;;;;;;;4951161;29;20429;-53
2021/03/28 07:11:17;;;;;;;3.03;2.40;;;;;;;;;;4989224;28;20777;-52
2021/03/28 07:14:04;;;;;;;5.10;2.10;;;;;;;;;;5012379;28;20398;-53
2021/03/28 07:16:30;;;;;;;8.87;3.03;;;;;;;;;;5012361;28;20398;-52
2021/03/28 07:19:02;;;;;;;6.80;2.90;;;;;;;;;;5011767;28;20457;-53
2021/03/28 07:21:40;;;;;;;4.17;3.00;;;;;;;;;;5012105;28;20422;-53
2021/03/28 07:24:22;;;;;;;3.43;2.57;;;;;;;;;;5011967;28;20399;-52
2021/03/28 07:26:55;;;;;;;7.57;2.50;;;;;;;;;;5012053;28;20404;-53
2021/03/28 07:29:39;;;;;;;4.00;2.20;;;;;;;;;;5011644;28;20957;-52
2021/03/28 07:32:20;;;;;;;4.13;2.30;;;;;;;;;;5011868;28;20425;-52
2021/03/28 07:34:46;;;;;;;5.03;2.50;;;;;;;;;;5010493;28;20768;-52
2021/03/28 07:37:31;;;;;;;6.63;2.50;;;;;;;;;;5011858;28;20437;-53
2021/03/28 07:40:16;;;;;;;6.83;2.37;;;;;;;;;;5009866;28;20468;-53
2021/03/28 07:42:51;;;;;;;4.40;2.20;;;;;;;;;;5011607;28;21072;-52
2021/03/28 07:45:20;;;;;;;5.47;2.37;;;;;;;;;;5011761;28;20402;-52
2021/03/28 07:48:02;;;;;;;6.60;2.37;;;;;;;;;;5011568;28;20469;-52
2021/03/28 07:50:43;;;;;;;7.83;3.27;;;;;;;;;;5011499;28;20926;-53
2021/03/28 07:53:15;;;;;;;5.97;2.90;;;;;;;;;;5011609;28;20776;-53
2021/03/28 07:56:00;;;;;;;5.63;2.53;;;;;;;;;;5011515;28;20415;-53
2021/03/28 07:58:33;;;;;;;9.03;2.50;;;;;;;;;;5011213;28;20453;-52
2021/03/28 08:01:07;;;;;;;7.17;2.53;;;;;;;;;;5011338;28;20482;-53
2021/03/28 08:03:43;;;;;;;8.20;2.60;;;;;;;;;;5010673;28;20421;-53
2021/03/28 08:06:29;;;;;;;4.20;2.13;;;;;;;;;;5010615;28;20411;-52
2021/03/28 08:09:04;;;;;;;10.87;2.33;;;;;;;;;;5000199;28;20403;-53
2021/03/28 08:11:49;;;;;;;3.73;2.20;;;;;;;;;;5009658;28;20449;-53
2021/03/28 08:14:35;;;;;;;9.57;2.80;;;;;;;;;;5010669;28;20937;-52
2021/03/28 08:17:10;;;;;;;5.70;2.53;;;;;;;;;;5010676;28;20439;-52
2021/03/28 08:19:52;;;;;;;5.73;2.53;;;;;;;;;;5010687;28;20454;-52
2021/03/28 08:22:25;;;;;;;8.27;2.30;;;;;;;;;;5010527;28;20998;-53
2021/03/28 08:25:16;;;;;;;3.27;2.30;;;;;;;;;;5010878;28;20387;-53
2021/03/28 08:27:47;;;;;;;7.80;3.07;;;;;;;;;;5010356;28;20486;-53
2021/03/28 08:30:19;;;;;;;3.33;2.27;;;;;;;;;;5010945;28;20400;-52
2021/03/28 08:33:06;;;;;;;10.00;2.80;;;;;;;;;;5011011;28;20425;-53
2021/03/28 08:35:32;;;;;;;6.40;2.50;;;;;;;;;;5011049;28;20465;-53
2021/03/28 08:38:11;;;;;;;8.80;2.70;;;;;;;;;;5010676;28;20416;-53
2021/03/28 08:40:56;;;;;;;8.67;3.03;;;;;;;;;;5009812;28;20502;-52
2021/03/28 08:43:25;;;;;;;4.80;2.70;;;;;;;;;;4991337;28;20404;-53
2021/03/28 08:46:03;;;;;;;12.87;3.40;;;;;;;;;;4991413;28;20402;-53
2021/03/28 08:48:32;;;;;;;5.43;2.77;;;;;;;;;;4990948;28;20402;-53
2021/03/28 08:51:07;;;;;;;8.00;2.90;;;;;;;;;;4991738;28;20485;-53
2021/03/28 08:53:52;;;;;;;5.97;2.87;;;;;;;;;;4995305;28;20406;-53
2021/03/28 08:56:24;;;;;;;5.97;2.90;;;;;;;;;;4995351;28;20414;-53
2021/03/28 08:58:53;;;;;;;5.10;2.60;;;;;;;;;;4994865;28;20888;-53
2021/03/28 09:01:23;;;;;;;6.17;2.60;;;;;;;;;;4995101;28;20438;-53
2021/03/28 09:03:56;;;;;;;12.33;2.80;;;;;;;;;;4995035;28;20408;-53
2021/03/28 09:06:41;;;;;;;11.73;2.30;;;;;;;;;;4995244;28;20403;-53
2021/03/28 09:09:26;;;;;;;5.23;2.67;;;;;;;;;;4994655;28;20406;-53
2021/03/28 09:11:59;;;;;;;4.20;2.37;;;;;;;;;;5002336;28;20923;-53
2021/03/28 09:14:37;;;;;;;9.47;2.90;;;;;;;;;;5014497;28;20633;-53
2021/03/28 09:17:09;;;;;;;4.60;2.30;;;;;;;;;;5014453;28;20409;-53
2021/03/28 09:19:54;;;;;;;5.60;2.87;;;;;;;;;;5013935;28;20460;-53
2021/03/28 09:22:23;;;;;;;8.83;2.80;;;;;;;;;;5014251;28;20433;-53
2021/03/28 09:25:08;;;;;;;5.33;3.40;;;;;;;;;;5014265;28;21112;-53
2021/03/28 09:27:37;;;;;;;6.27;2.23;;;;;;;;;;5014090;28;20442;-53
2021/03/28 09:30:18;;;;;;;9.33;2.70;;;;;;;;;;5013914;28;20374;-54
2021/03/28 09:33:05;;;;;;;12.30;3.03;;;;;;;;;;5014074;28;20795;-54
2021/03/28 09:35:36;;;;;;;7.40;2.60;;;;;;;;;;5014094;28;20872;-53
2021/03/28 09:38:21;;;;;;;5.00;2.10;;;;;;;;;;5013865;28;20412;-54
2021/03/28 09:40:52;;;;;;;4.43;2.60;;;;;;;;;;5012633;28;20496;-54
2021/03/28 09:43:20;;;;;;;5.27;2.20;;;;;;;;;;5013873;28;20792;-54
2021/03/28 09:45:57;;;;;;;7.67;3.00;;;;;;;;;;5013858;28;20403;-53
2021/03/28 09:48:23;;;;;;;8.87;2.50;;;;;;;;;;5013589;28;20445;-54
2021/03/28 09:51:01;;;;;;;8.80;3.90;;;;;;;;;;5013568;28;20410;-53
2021/03/28 09:53:45;;;;;;;5.93;2.87;;;;;;;;;;5013826;28;20822;-53
2021/03/28 09:56:30;;;;;;;5.83;2.80;;;;;;;;;;5013680;28;20384;-53
2021/03/28 09:59:15;;;;;;;9.57;3.10;;;;;;;;;;5013415;28;20425;-53
2021/03/28 10:01:44;;;;;;;7.50;2.83;;;;;;;;;;5013534;28;20423;-53
2021/03/28 10:04:29;;;;;;;9.63;3.10;;;;;;;;;;5012755;28;20406;-54
2021/03/28 10:06:58;;;;;;;10.03;3.10;;;;;;;;;;5013457;28;20366;-54
2021/03/28 10:09:27;;;;;;;8.33;2.80;;;;;;;;;;5013226;28;20385;-53
2021/03/28 10:11:57;;;;;;;11.77;2.87;;;;;;;;;;5012282;28;20496;-54
2021/03/28 10:14:41;;;;;;;6.37;3.20;;;;;;;;;;5013411;28;20374;-53
2021/03/28 10:17:20;;;;;;;6.67;3.40;;;;;;;;;;5013236;28;20497;-53
2021/03/28 10:19:48;;;;;;;11.30;3.07;;;;;;;;;;5013246;28;20425;-53
2021/03/28 10:22:25;;;;;;;11.70;2.80;;;;;;;;;;5013151;28;20427;-54
2021/03/28 10:24:57;;;;;;;6.00;2.67;;;;;;;;;;5013449;28;20402;-54
2021/03/28 10:27:42;;;;;;;3.77;1.80;;;;;;;;;;5012953;28;20385;-54
2021/03/28 10:30:40;;;;;;;8.80;2.37;;;;;;;;;;5013179;28;20411;-54
2021/03/28 10:33:12;;;;;;;5.97;2.03;;;;;;;;;;4979988;28;20920;-54
2021/03/28 10:35:53;;;;;;;6.83;1.77;;;;;;;;;;5013232;28;20442;-54
2021/03/28 10:38:40;;;;;;;3.47;1.63;;;;;;;;;;5012686;28;20952;-54
2021/03/28 10:41:18;;;;;;;9.13;2.70;;;;;;;;;;5011617;28;20463;-54
2021/03/28 10:44:00;;;;;;;4.33;1.80;;;;;;;;;;5012744;28;20457;-53
2021/03/28 10:46:32;;;;;;;3.30;1.90;;;;;;;;;;5012769;28;20434;-54
2021/03/28 10:49:37;;;;;;;4.40;1.70;;;;;;;;;;5012375;28;20978;-54
2021/03/28 10:52:23;;;;;;;4.97;1.73;;;;;;;;;;4951743;29;20524;-54
2021/03/28 10:55:04;;;;;;;4.40;1.60;;;;;;;;;;4923076;29;20910;-54
2021/03/28 10:57:48;;;;;;;7.40;3.03;;;;;;;;;;4994903;28;20410;-54
2021/03/28 11:00:17;;;;;;;9.80;2.13;;;;;;;;;;5012331;28;20469;-54
2021/03/28 11:02:43;;;;;;;3.27;1.93;;;;;;;;;;5012400;28;20429;-54
2021/03/28 11:05:28;;;;;;;6.53;2.37;;;;;;;;;;5012382;28;20482;-54
2021/03/28 11:08:10;;;;;;;4.80;1.97;;;;;;;;;;5012107;28;20398;-53
2021/03/28 11:10:45;;;;;;;4.40;1.77;;;;;;;;;;5012107;28;20403;-55
2021/03/28 11:13:17;;;;;;;7.73;2.47;;;;;;;;;;5010170;28;20934;-54
2021/03/28 11:15:48;;;;;;;5.10;2.60;;;;;;;;;;5011904;28;20410;-54
2021/03/28 11:18:23;;;;;;;3.57;2.13;;;;;;;;;;5012003;28;20545;-55
2021/03/28 11:21:04;;;;;;;3.97;2.30;;;;;;;;;;5012148;28;20493;-55
2021/03/28 11:23:49;;;;;;;7.97;1.70;;;;;;;;;;5012110;28;20778;-55
2021/03/28 11:26:38;;;;;;;10.30;3.83;;;;;;;;;;5011751;28;20890;-54
2021/03/28 11:29:23;;;;;;;4.70;2.30;;;;;;;;;;5011885;28;20399;-54
2021/03/28 11:32:15;;;;;;;6.30;1.87;;;;;;;;;;5011923;28;20439;-54
2021/03/28 11:35:04;;;;;;;7.67;2.30;;;;;;;;;;5009959;28;20907;-54
2021/03/28 11:37:43;;;;;;;6.80;2.60;;;;;;;;;;5011947;28;20407;-54
2021/03/28 11:40:18;;;;;;;3.87;2.23;;;;;;;;;;5011810;28;20509;-54
2021/03/28 11:43:12;;;;;;;12.60;2.83;;;;;;;;;;5010692;28;20443;-54
2021/03/28 11:46:08;;;;;;;5.03;2.13;;;;;;;;;;4989685;28;20957;-54
2021/03/28 11:48:36;;;;;;;6.77;2.20;;;;;;;;;;4998386;28;20427;-54
2021/03/28 11:51:21;;;;;;;6.73;2.57;;;;;;;;;;5010168;28;20478;-54
2021/03/28 11:53:55;;;;;;;8.40;2.23;;;;;;;;;;5011423;28;20422;-53
2021/03/28 11:56:41;;;;;;;6.90;2.60;;;;;;;;;;5011455;28;20407;-54
2021/03/28 11:59:12;;;;;;;6.80;2.60;;;;;;;;;;5011132;28;20433;-54
2021/03/28 12:02:01;;;;;;;4.33;1.70;;;;;;;;;;5011457;28;20484;-53
2021/03/28 12:04:27;;;;;;;8.20;2.93;;;;;;;;;;5011459;28;20788;-54
2021/03/28 12:06:56;;;;;;;6.00;2.30;;;;;;;;;;5011619;28;20921;-54
2021/03/28 12:09:28;;;;;;;5.10;2.10;;;;;;;;;;5011208;28;21056;-54
2021/03/28 12:11:55;;;;;;;7.43;2.50;;;;;;;;;;5009575;28;20833;-54
2021/03/28 12:14:28;;;;;;;14.73;3.00;;;;;;;;;;5011807;28;20411;-53
2021/03/28 12:17:10;;;;;;;6.77;2.03;;;;;;;;;;5011624;28;20407;-54
2021/03/28 12:19:54;;;;;;;3.23;1.90;;;;;;;;;;5010552;28;20446;-54
2021/03/28 12:22:46;;;;;;;9.80;2.60;;;;;;;;;;4991786;28;20447;-54
2021/03/28 12:25:12;;;;;;;4.50;2.13;;;;;;;;;;4989012;28;20551;-54
2021/03/28 12:27:58;;;;;;;3.40;2.07;;;;;;;;;;4991195;28;20874;-53
2021/03/28 12:30:28;;;;;;;7.90;4.47;;;;;;;;;;4979916;28;20418;-54
2021/03/28 12:32:54;;;;;;;4.13;2.97;;;;;;;;;;4991225;28;20420;-54
2021/03/28 12:35:22;;;;;;;5.50;3.40;;;;;;;;;;4991322;28;20383;-54
2021/03/28 12:37:49;;;;;;;4.40;2.00;;;;;;;;;;4991184;28;20930;-53
2021/03/28 12:40:24;;;;;;;4.53;2.20;;;;;;;;;;4991109;28;20429;-53
2021/03/28 12:42:51;;;;;;;4.50;2.20;;;;;;;;;;5001254;28;20524;-54
2021/03/28 12:45:17;;;;;;;5.30;1.97;;;;;;;;;;5010736;28;20401;-53
2021/03/28 12:47:43;;;;;;;11.60;3.70;;;;;;;;;;5010712;28;20494;-53
2021/03/28 12:50:14;;;;;;;7.40;2.20;;;;;;;;;;5011297;28;20405;-51
2021/03/28 12:52:44;;;;;;;5.13;2.70;;;;;;;;;;5010551;28;20427;-53
2021/03/28 12:55:25;;;;;;;5.53;2.80;;;;;;;;;;5009919;28;20446;-51
2021/03/28 12:57:56;;;;;;;4.57;2.50;;;;;;;;;;5010329;28;20407;-52
2021/03/28 13:00:33;;;;;;;5.70;2.63;;;;;;;;;;5010618;28;20455;-50
2021/03/28 13:03:00;;;;;;;6.13;3.50;;;;;;;;;;5010497;28;20819;-51
2021/03/28 13:05:30;;;;;;;8.10;2.30;;;;;;;;;;5010783;28;20407;-52
2021/03/28 13:08:17;;;;;;;3.93;1.87;;;;;;;;;;5010483;28;20407;-51
2021/03/28 13:10:44;;;;;;;4.83;2.23;;;;;;;;;;5010682;28;20755;-53
2021/03/28 13:13:16;;;;;;;7.30;2.50;;;;;;;;;;5009491;28;20496;-51
2021/03/28 13:15:50;;;;;;;4.40;2.17;;;;;;;;;;5010623;28;20923;-51
2021/03/28 13:18:25;;;;;;;5.53;2.33;;;;;;;;;;5010274;28;20382;-51
2021/03/28 13:20:53;;;;;;;5.13;2.23;;;;;;;;;;5010448;28;20454;-51
2021/03/28 13:23:45;;;;;;;5.23;2.40;;;;;;;;;;5010499;28;20602;-51
2021/03/28 13:26:15;;;;;;;8.07;3.30;;;;;;;;;;5008257;28;20816;-51
2021/03/28 13:28:42;;;;;;;7.00;2.37;;;;;;;;;;5010203;28;20431;-51
2021/03/28 13:31:28;;;;;;;8.73;2.50;;;;;;;;;;5009199;28;20480;-52
2021/03/28 13:33:57;;;;;;;6.43;2.27;;;;;;;;;;5010425;28;20370;-52
2021/03/28 13:36:25;;;;;;;9.67;2.30;;;;;;;;;;5010735;28;20414;-51
2021/03/28 13:39:12;;;;;;;9.47;2.50;;;;;;;;;;5011787;28;20899;-51
2021/03/28 13:41:58;;;;;;;2.37;2.03;;;;;;;;;;5013885;28;20437;-51
2021/03/28 13:44:44;;;;;;;7.00;2.30;;;;;;;;;;5002750;28;20443;-52
2021/03/28 13:47:11;;;;;;;4.53;2.50;;;;;;;;;;5013949;28;20405;-51
2021/03/28 13:49:45;;;;;;;5.67;2.10;;;;;;;;;;5013903;28;20414;-53
2021/03/28 13:52:32;;;;;;;6.17;2.10;;;;;;;;;;5014049;28;20837;-51
2021/03/28 13:55:11;;;;;;;5.90;2.53;;;;;;;;;;5011810;28;20389;-51
2021/03/28 13:57:41;;;;;;;4.27;2.00;;;;;;;;;;5013918;28;20415;-54
2021/03/28 14:00:13;;;;;;;6.47;2.90;;;;;;;;;;5019004;28;20553;-51
2021/03/28 14:02:41;;;;;;;4.37;1.90;;;;;;;;;;5018776;28;20401;-52
2021/03/28 14:05:07;;;;;;;6.07;2.40;;;;;;;;;;5008490;28;20391;-52
2021/03/28 14:07:45;;;;;;;4.90;2.07;;;;;;;;;;5000366;28;20838;-54
2021/03/28 14:10:24;;;;;;;7.10;2.00;;;;;;;;;;5000160;28;20380;-53
2021/03/28 14:12:54;;;;;;;4.17;2.20;;;;;;;;;;5007530;28;20471;-53
2021/03/28 14:15:38;;;;;;;5.40;2.20;;;;;;;;;;5019217;28;20519;-52
2021/03/28 14:18:17;;;;;;;4.57;2.10;;;;;;;;;;5018917;28;20402;-52
2021/03/28 14:20:48;;;;;;;4.33;2.20;;;;;;;;;;5019014;28;20462;-53
2021/03/28 14:23:16;;;;;;;6.20;2.07;;;;;;;;;;5018802;28;20435;-52
2021/03/28 14:25:41;;;;;;;9.80;2.60;;;;;;;;;;5018245;28;20533;-53
2021/03/28 14:28:25;;;;;;;7.73;2.37;;;;;;;;;;5018767;28;20475;-54
2021/03/28 14:31:02;;;;;;;4.73;2.30;;;;;;;;;;5017367;28;20430;-52
2021/03/28 14:33:49;;;;;;;9.20;2.67;;;;;;;;;;5018655;28;20433;-52
2021/03/28 14:36:28;;;;;;;5.57;2.80;;;;;;;;;;5018303;28;20476;-52
2021/03/28 14:39:02;;;;;;;5.17;2.53;;;;;;;;;;5018457;28;20400;-52
2021/03/28 14:41:35;;;;;;;6.23;2.37;;;;;;;;;;5019095;28;20461;-52
2021/03/28 14:44:20;;;;;;;9.67;2.07;;;;;;;;;;5018241;28;20464;-52
2021/03/28 14:46:50;;;;;;;5.23;2.03;;;;;;;;;;5018988;28;20395;-53
2021/03/28 14:49:28;;;;;;;4.50;2.10;;;;;;;;;;5018365;28;20397;-52
2021/03/28 14:52:13;;;;;;;4.90;2.10;;;;;;;;;;5018823;28;20939;-53
2021/03/28 14:54:51;;;;;;;4.63;2.17;;;;;;;;;;5018267;28;20382;-52
2021/03/28 14:57:47;;;;;;;8.57;2.77;;;;;;;;;;5018747;28;20407;-52
2021/03/28 15:00:21;;;;;;;6.90;1.97;;;;;;;;;;4963378;28;20525;-52
2021/03/28 15:02:56;;;;;;;8.63;2.27;;;;;;;;;;5017798;28;20422;-52
2021/03/28 15:05:30;;;;;;;4.90;2.07;;;;;;;;;;5018688;28;20373;-52
2021/03/28 15:07:59;;;;;;;6.80;1.97;;;;;;;;;;5018242;28;20382;-52
2021/03/28 15:10:36;;;;;;;6.60;2.03;;;;;;;;;;5017389;28;20491;-52
2021/03/28 15:13:04;;;;;;;5.63;2.37;;;;;;;;;;5016479;28;20437;-53
2021/03/28 15:15:38;;;;;;;7.53;2.17;;;;;;;;;;5017308;28;20442;-51
2021/03/28 15:18:13;;;;;;;7.87;2.00;;;;;;;;;;5016970;28;20902;-53
2021/03/28 15:20:45;;;;;;;4.47;2.13;;;;;;;;;;5017968;28;20459;-52
2021/03/28 15:23:20;;;;;;;7.73;2.40;;;;;;;;;;5017317;28;20879;-53
2021/03/28 15:26:15;;;;;;;4.30;2.30;;;;;;;;;;5017326;28;20405;-53
2021/03/28 15:28:43;;;;;;;3.40;2.40;;;;;;;;;;4963923;28;20426;-53
2021/03/28 15:31:15;;;;;;;5.90;2.57;;;;;;;;;;5017909;28;20469;-55
2021/03/28 15:33:44;;;;;;;8.07;2.83;;;;;;;;;;5016826;28;20407;-53
2021/03/28 15:36:29;;;;;;;4.23;2.40;;;;;;;;;;5016861;28;20502;-52
2021/03/28 15:39:03;;;;;;;5.27;2.40;;;;;;;;;;5015977;28;20403;-52